KNRB/NRB METAR and TAF weather

Enter ICAO airport designator
Station Type Date Time Source
KNRB METAR 2021/08/02 01:52 UTC NOAA

KNRB 020152Z AUTO 24011KT 8SM RA FEW110 24/23 A3001 RMK AO2 SLP162 P0009 T02440233 $


Station Type Date Time Source
KNRB Decoded METAR 2021/08/02 01:52 UTC NOAA

MAYPORT NAVAL AIR FACILITY, FL, United States (KNRB) 30-24N 81-25W 4M
Aug 01, 2021 - 09:52 PM EDT / 2021.08.02 0152 UTC
Wind: from the WSW (240 degrees) at 13 MPH (11 KT):0
Visibility: 8 mile(s):0
Sky conditions: mostly clear
Weather: rain
Precipitation last hour: 0.09 inches
Temperature: 75.9 F (24.4 C)
Dew Point: 73.9 F (23.3 C)
Relative Humidity: 93%
Pressure (altimeter): 30.01 in. Hg (1016 hPa)
ob: KNRB 020152Z AUTO 24011KT 8SM RA FEW110 24/23 A3001 RMK AO2 SLP162 P0009 T02440233
cycle: 2

Station Type Date Time Source
KNRB TAF 2021/07/30 15:18 UTC NOAA

TAF KNRB 3015/3115 25008KT 9999 SCT020 SCT250 QNH2998INS
FM301800 16012G18KT 9999 FEW040 BKN250 QNH2992INS
FM310200 22010KT 9999 SCT250 QNH2996INS LAST NO
AMDS AFT 3022 NEXT 0207 AUTOMATED SENSOR METWATCH 3022 TIL 0209 T33/3019Z T25/3111Z FN20021

Example: see airport list